createdAt,value
2022-08-22T00:01:08.075Z,15.50
2022-08-22T00:02:48.934Z,16.10
2022-08-22T00:03:50.605Z,15.50
2022-08-22T00:06:26.407Z,15.40
2022-08-22T00:08:53.478Z,15.40
2022-08-22T00:11:36.238Z,15.40
2022-08-22T00:14:09.108Z,15.40
2022-08-22T00:16:58.469Z,15.30
2022-08-22T00:19:48.229Z,15.40
2022-08-22T00:22:45.520Z,15.40
2022-08-22T00:25:40.466Z,15.40
2022-08-22T00:28:12.379Z,15.40
2022-08-22T00:31:03.078Z,15.50
2022-08-22T00:33:56.061Z,15.50
2022-08-22T00:37:02.646Z,15.60
2022-08-22T00:39:34.486Z,15.60
2022-08-22T00:42:31.828Z,15.70
2022-08-22T00:45:17.529Z,15.70
2022-08-22T00:48:03.036Z,15.60
2022-08-22T00:51:15.675Z,15.80
2022-08-22T00:53:51.563Z,15.60
2022-08-22T00:56:41.657Z,15.60
2022-08-22T00:59:47.571Z,15.60
2022-08-22T01:02:55.502Z,15.60
2022-08-22T01:05:50.537Z,15.70
2022-08-22T01:08:36.553Z,15.70
2022-08-22T01:11:28.558Z,15.70
2022-08-22T01:14:12.853Z,15.70
2022-08-22T01:16:52.001Z,15.70
2022-08-22T01:19:41.811Z,15.70
2022-08-22T01:22:35.982Z,15.60
2022-08-22T01:25:33.997Z,15.60
2022-08-22T01:28:24.545Z,15.60
2022-08-22T01:31:20.443Z,15.60
2022-08-22T01:34:06.021Z,15.70
2022-08-22T01:36:50.483Z,15.60
2022-08-22T01:39:26.779Z,15.70
2022-08-22T01:42:19.973Z,15.60
2022-08-22T01:45:05.701Z,15.60
2022-08-22T01:47:37.356Z,15.60
2022-08-22T01:50:23.064Z,15.50
2022-08-22T01:53:05.510Z,15.50
2022-08-22T01:55:41.507Z,15.50
2022-08-22T01:58:23.702Z,15.40
2022-08-22T02:01:11.052Z,15.40
2022-08-22T02:03:51.619Z,15.40
2022-08-22T02:06:25.031Z,15.40
2022-08-22T02:09:09.701Z,15.40
2022-08-22T02:12:25.691Z,15.50
2022-08-22T02:15:08.271Z,15.40
2022-08-22T02:17:56.564Z,15.40
2022-08-22T02:20:33.754Z,15.40
2022-08-22T02:23:09.788Z,15.40
2022-08-22T02:25:56.754Z,15.40
2022-08-22T02:28:57.184Z,15.40
2022-08-22T02:31:36.975Z,15.40
2022-08-22T02:34:17.819Z,15.30
2022-08-22T02:36:49.018Z,15.30
2022-08-22T02:39:50.292Z,15.50
2022-08-22T02:42:38.663Z,15.30
2022-08-22T02:45:16.430Z,15.30
2022-08-22T02:48:05.429Z,15.30
2022-08-22T02:50:38.459Z,15.30
2022-08-22T02:53:44.869Z,15.40
2022-08-22T02:56:19.910Z,15.30
2022-08-22T02:59:00.227Z,15.30
2022-08-22T03:01:30.710Z,15.40
2022-08-22T03:04:27.597Z,15.40
2022-08-22T03:07:33.564Z,15.40
2022-08-22T03:10:23.605Z,15.40
2022-08-22T03:13:12.018Z,15.40
2022-08-22T03:15:58.995Z,15.40
2022-08-22T03:18:44.509Z,15.40
2022-08-22T03:21:17.726Z,15.50
2022-08-22T03:24:11.091Z,15.30
2022-08-22T03:26:53.430Z,15.40
2022-08-22T03:29:26.838Z,15.30
2022-08-22T03:32:23.046Z,15.30
2022-08-22T03:35:08.990Z,15.30
2022-08-22T03:37:38.412Z,15.20
2022-08-22T03:40:22.087Z,15.20
2022-08-22T03:43:39.148Z,15.20
2022-08-22T03:46:43.594Z,15.30
2022-08-22T03:49:32.071Z,15.30
2022-08-22T03:52:24.445Z,15.30
2022-08-22T03:55:20.806Z,15.30
2022-08-22T03:58:27.618Z,15.20
2022-08-22T04:01:20.642Z,15.20
2022-08-22T04:04:11.910Z,15.20
2022-08-22T04:06:45.031Z,15.20
2022-08-22T04:09:37.049Z,15.20
2022-08-22T04:12:19.365Z,15.20
2022-08-22T04:15:05.185Z,15.20
2022-08-22T04:17:49.916Z,15.20
2022-08-22T04:20:45.347Z,15.20
2022-08-22T04:23:30.515Z,15.10
2022-08-22T04:26:12.109Z,15.20
2022-08-22T04:28:52.480Z,15.10
2022-08-22T04:31:23.303Z,15.10
2022-08-22T04:34:03.389Z,15.00
2022-08-22T04:36:55.423Z,15.00
2022-08-22T04:39:25.175Z,15.10
2022-08-22T04:42:16.303Z,15.00
2022-08-22T04:45:21.372Z,15.00
2022-08-22T04:48:04.974Z,15.00
2022-08-22T04:50:49.153Z,15.10
2022-08-22T04:53:46.418Z,15.10
2022-08-22T04:56:25.533Z,15.10
2022-08-22T04:59:26.696Z,15.10
2022-08-22T05:02:06.828Z,15.10
2022-08-22T05:04:43.803Z,15.10
2022-08-22T05:08:21.127Z,15.10
2022-08-22T05:10:48.589Z,15.20
2022-08-22T05:13:28.982Z,15.20
2022-08-22T05:15:58.471Z,15.30
2022-08-22T05:18:30.661Z,15.30
2022-08-22T05:20:59.593Z,15.40
2022-08-22T05:23:43.934Z,15.40
2022-08-22T05:26:11.586Z,15.40
2022-08-22T05:28:41.954Z,15.30
2022-08-22T05:31:14.307Z,15.40
2022-08-22T05:33:42.448Z,15.40
2022-08-22T05:36:19.599Z,15.40
2022-08-22T05:38:55.031Z,15.40
2022-08-22T05:41:26.791Z,15.50
2022-08-22T05:43:54.620Z,15.30
2022-08-22T05:46:27.060Z,15.40
2022-08-22T05:49:00.078Z,15.40
2022-08-22T05:51:51.626Z,15.30
2022-08-22T05:54:21.525Z,15.30
2022-08-22T05:57:10.031Z,15.20
2022-08-22T05:59:39.004Z,15.20
2022-08-22T06:02:48.828Z,15.20
2022-08-22T06:05:19.959Z,15.10
2022-08-22T06:07:48.220Z,15.20
2022-08-22T06:10:28.166Z,15.20
2022-08-22T06:12:59.859Z,15.30
2022-08-22T06:15:45.790Z,15.30
2022-08-22T06:18:17.514Z,15.40
2022-08-22T06:20:49.843Z,15.40
2022-08-22T06:23:28.232Z,15.50
2022-08-22T06:25:57.430Z,15.50
2022-08-22T06:28:26.054Z,15.60
2022-08-22T06:30:54.335Z,15.70
2022-08-22T06:33:24.723Z,15.70
2022-08-22T06:36:11.608Z,15.70
2022-08-22T06:39:16.848Z,15.70
2022-08-22T06:41:47.166Z,15.60
2022-08-22T06:44:16.010Z,15.50
2022-08-22T06:46:43.350Z,15.50
2022-08-22T06:49:10.495Z,15.30
2022-08-22T06:51:37.819Z,15.30
2022-08-22T06:54:06.716Z,15.30
2022-08-22T06:56:40.354Z,15.20
2022-08-22T06:59:11.263Z,15.20
2022-08-22T07:01:49.849Z,15.20
2022-08-22T07:04:17.463Z,15.30
2022-08-22T07:06:47.491Z,15.30
2022-08-22T07:09:28.394Z,15.40
2022-08-22T07:11:56.458Z,15.40
2022-08-22T07:14:39.928Z,15.50
2022-08-22T07:17:10.612Z,15.60
2022-08-22T07:19:39.597Z,15.70
2022-08-22T07:22:19.376Z,15.80
2022-08-22T07:24:48.199Z,15.80
2022-08-22T07:27:48.897Z,15.90
2022-08-22T07:30:27.634Z,15.90
2022-08-22T07:33:23.643Z,15.90
2022-08-22T07:36:31.030Z,15.90
2022-08-22T07:39:11.187Z,16.10
2022-08-22T07:41:47.830Z,15.90
2022-08-22T07:44:23.027Z,16.00
2022-08-22T07:47:07.290Z,15.80
2022-08-22T07:49:49.650Z,15.80
2022-08-22T07:52:17.073Z,15.80
2022-08-22T07:54:51.011Z,15.80
2022-08-22T07:57:30.831Z,15.80
2022-08-22T08:26:39.731Z,16.00
2022-08-22T08:29:07.489Z,15.90
2022-08-22T08:31:43.397Z,16.00
2022-08-22T08:34:20.709Z,16.00
2022-08-22T08:37:18.090Z,16.00
2022-08-22T08:39:48.793Z,16.00
2022-08-22T08:42:29.885Z,16.10
2022-08-22T08:45:15.175Z,16.10
2022-08-22T08:47:56.622Z,16.10
2022-08-22T08:50:40.701Z,16.20
2022-08-22T08:53:49.822Z,16.50
2022-08-22T08:56:30.271Z,16.80
2022-08-22T08:59:34.433Z,16.90
2022-08-22T09:02:23.491Z,17.10
2022-08-22T09:05:28.421Z,17.30
2022-08-22T09:08:01.984Z,17.40
2022-08-22T09:10:29.441Z,17.60
2022-08-22T09:16:08.421Z,17.60
2022-08-22T09:18:55.573Z,17.60
2022-08-22T09:21:31.500Z,17.50
2022-08-22T09:24:19.639Z,17.70
2022-08-22T09:26:49.491Z,17.80
2022-08-22T09:30:12.079Z,17.70
2022-08-22T09:33:15.368Z,17.70
2022-08-22T09:35:59.327Z,17.70
2022-08-22T09:38:53.534Z,17.80
2022-08-22T09:41:26.653Z,17.90
2022-08-22T09:44:15.842Z,17.90
2022-08-22T09:47:24.676Z,18.00
2022-08-22T09:52:47.927Z,17.90
2022-08-22T09:55:35.412Z,18.00
2022-08-22T09:58:19.311Z,18.20
2022-08-22T10:00:59.885Z,18.20
2022-08-22T10:03:45.795Z,18.00
2022-08-22T10:06:22.586Z,18.00
2022-08-22T10:09:37.155Z,18.00
2022-08-22T10:12:13.298Z,18.00
2022-08-22T10:14:50.579Z,18.00
2022-08-22T10:17:21.979Z,18.00
2022-08-22T10:19:55.276Z,18.00
2022-08-22T10:22:22.405Z,17.90
2022-08-22T10:25:13.411Z,17.80
2022-08-22T10:28:16.797Z,17.90
2022-08-22T10:31:06.491Z,17.90
2022-08-22T10:33:34.911Z,17.90
2022-08-22T10:36:11.993Z,17.90
2022-08-22T10:38:48.099Z,17.90
2022-08-22T10:41:52.134Z,17.90
2022-08-22T10:44:19.831Z,17.90
2022-08-22T10:46:56.074Z,18.00
2022-08-22T10:49:35.613Z,18.00
2022-08-22T10:52:16.472Z,18.20
2022-08-22T10:55:00.964Z,17.90
2022-08-22T10:57:53.112Z,17.80
2022-08-22T11:00:50.141Z,17.90
2022-08-22T11:03:46.194Z,17.90
2022-08-22T11:06:18.647Z,17.90
2022-08-22T11:09:08.909Z,18.00
2022-08-22T11:11:39.712Z,18.00
2022-08-22T11:14:30.597Z,17.90
2022-08-22T11:16:57.630Z,17.90
2022-08-22T11:19:36.816Z,17.90
2022-08-22T11:22:21.731Z,18.00
2022-08-22T11:25:15.571Z,18.10
2022-08-22T11:27:56.372Z,18.40
2022-08-22T11:30:45.675Z,18.50
2022-08-22T11:33:47.212Z,18.70
2022-08-22T11:36:37.202Z,18.50
2022-08-22T11:39:39.791Z,19.10
2022-08-22T11:42:08.869Z,19.20
2022-08-22T11:44:50.047Z,19.30
2022-08-22T11:47:20.350Z,19.20
2022-08-22T11:50:04.155Z,19.00
2022-08-22T11:53:11.173Z,18.80
2022-08-22T11:56:11.208Z,18.60
2022-08-22T11:58:56.079Z,18.70
2022-08-22T12:01:34.725Z,18.80
2022-08-22T12:04:12.947Z,18.70
2022-08-22T12:07:01.847Z,18.70
2022-08-22T12:09:29.888Z,18.60
2022-08-22T12:12:13.432Z,18.50
2022-08-22T12:15:02.190Z,18.40
2022-08-22T12:18:01.811Z,18.40
2022-08-22T12:20:37.922Z,18.40
2022-08-22T12:23:43.307Z,18.40
2022-08-22T12:26:26.296Z,18.50
2022-08-22T12:28:53.814Z,18.30
2022-08-22T12:32:02.779Z,18.30
2022-08-22T12:34:49.049Z,18.30
2022-08-22T12:37:30.874Z,18.30
2022-08-22T12:40:21.612Z,18.30
2022-08-22T12:43:11.688Z,18.30
2022-08-22T12:46:13.217Z,18.30
2022-08-22T12:49:07.828Z,18.20
2022-08-22T12:51:55.809Z,18.20
2022-08-22T12:54:46.622Z,18.20
2022-08-22T12:57:36.911Z,18.10
2022-08-22T13:00:26.923Z,18.10
2022-08-22T13:02:56.451Z,18.00
2022-08-22T13:05:25.391Z,18.00
2022-08-22T13:08:14.094Z,17.90
2022-08-22T13:10:50.010Z,17.80
2022-08-22T13:13:36.492Z,17.70
2022-08-22T13:16:22.569Z,17.60
2022-08-22T13:18:59.453Z,17.60
2022-08-22T13:21:36.244Z,17.60
2022-08-22T13:24:16.809Z,17.50
2022-08-22T13:26:52.848Z,17.50
2022-08-22T13:29:42.874Z,17.50
2022-08-22T13:32:11.603Z,17.40
2022-08-22T13:35:05.250Z,17.40
2022-08-22T13:37:41.758Z,17.30
2022-08-22T13:40:11.828Z,17.30
2022-08-22T13:42:54.213Z,17.40
2022-08-22T13:45:26.333Z,17.40
2022-08-22T13:47:59.531Z,17.40
2022-08-22T13:50:37.048Z,17.40
2022-08-22T13:53:56.174Z,17.50
2022-08-22T13:56:52.491Z,17.50
2022-08-22T13:59:50.246Z,17.60
2022-08-22T14:02:43.180Z,17.50
2022-08-22T14:05:33.240Z,17.60
2022-08-22T14:08:18.497Z,17.60
2022-08-22T14:11:09.732Z,17.60
2022-08-22T14:13:41.024Z,17.60
2022-08-22T14:16:15.125Z,17.50
2022-08-22T14:18:45.484Z,17.50
2022-08-22T14:21:41.357Z,17.40
2022-08-22T14:24:19.415Z,17.40
2022-08-22T14:26:58.646Z,17.30
2022-08-22T14:29:28.173Z,17.40
2022-08-22T14:32:35.385Z,17.30
2022-08-22T14:35:29.229Z,17.30
2022-08-22T14:45:55.889Z,17.30
2022-08-22T14:48:31.343Z,17.30
2022-08-22T14:51:06.092Z,17.40
2022-08-22T14:53:37.273Z,17.50
2022-08-22T14:56:07.112Z,17.50
2022-08-22T14:58:57.151Z,17.50
2022-08-22T15:01:26.844Z,17.50
2022-08-22T15:04:09.158Z,17.50
2022-08-22T15:07:06.402Z,17.40
2022-08-22T15:09:49.958Z,17.50
2022-08-22T15:12:38.737Z,17.40
2022-08-22T15:15:49.506Z,17.50
2022-08-22T15:18:51.879Z,17.40
2022-08-22T15:21:24.257Z,17.30
2022-08-22T15:23:54.090Z,17.30
2022-08-22T15:26:28.591Z,17.30
2022-08-22T15:28:58.419Z,17.30
2022-08-22T15:31:26.560Z,17.30
2022-08-22T15:33:53.615Z,17.10
2022-08-22T15:36:22.559Z,17.20
2022-08-22T15:38:50.963Z,17.20
2022-08-22T15:41:36.695Z,17.20
2022-08-22T15:44:32.713Z,17.10
2022-08-22T15:47:05.419Z,17.10
2022-08-22T15:49:48.719Z,17.20
2022-08-22T15:52:22.646Z,17.20
2022-08-22T15:54:57.143Z,17.20
2022-08-22T15:57:41.074Z,17.20
2022-08-22T16:00:28.086Z,17.30
2022-08-22T16:03:02.626Z,17.30
2022-08-22T16:05:47.799Z,17.30
2022-08-22T16:08:18.629Z,17.30
2022-08-22T16:10:55.505Z,17.30
2022-08-22T16:13:31.324Z,17.60
2022-08-22T16:16:04.439Z,17.30
2022-08-22T16:18:34.616Z,17.30
2022-08-22T16:21:12.663Z,17.30
2022-08-22T16:23:53.825Z,17.30
2022-08-22T16:26:30.602Z,17.30
2022-08-22T16:29:18.074Z,17.30
2022-08-22T16:31:48.267Z,17.40
2022-08-22T16:34:18.421Z,17.40
2022-08-22T16:37:19.086Z,17.40
2022-08-22T16:39:49.122Z,17.50
2022-08-22T16:42:16.123Z,17.40
2022-08-22T16:44:47.214Z,17.40
2022-08-22T16:47:18.246Z,17.40
2022-08-22T16:49:51.435Z,17.40
2022-08-22T16:52:23.851Z,17.40
2022-08-22T16:55:00.843Z,17.40
2022-08-22T16:58:04.967Z,17.40
2022-08-22T17:00:44.764Z,17.40
2022-08-22T17:03:50.098Z,17.30
2022-08-22T17:06:26.215Z,17.30
2022-08-22T17:09:02.198Z,17.40
2022-08-22T17:11:32.161Z,17.40
2022-08-22T17:14:11.359Z,17.20
2022-08-22T17:16:54.121Z,17.30
2022-08-22T17:19:31.739Z,17.40
2022-08-22T17:22:29.024Z,17.30
2022-08-22T17:25:33.528Z,17.40
2022-08-22T17:28:18.145Z,17.30
2022-08-22T17:31:00.959Z,17.20
2022-08-22T17:33:52.289Z,17.30
2022-08-22T17:36:46.095Z,17.20
2022-08-22T17:39:42.766Z,17.20
2022-08-22T17:42:39.039Z,17.40
2022-08-22T17:45:31.164Z,17.20
2022-08-22T17:48:14.352Z,17.20
2022-08-22T17:50:41.530Z,17.40
2022-08-22T17:53:27.328Z,17.10
2022-08-22T17:56:14.900Z,17.50
2022-08-22T17:59:04.537Z,17.30
2022-08-22T18:02:00.018Z,17.10
2022-08-22T18:04:43.368Z,17.10
2022-08-22T18:07:49.988Z,17.10
2022-08-22T18:17:29.312Z,17.00
2022-08-22T18:20:14.858Z,17.00
2022-08-22T18:22:45.921Z,17.20
2022-08-22T18:25:19.241Z,17.30
2022-08-22T18:27:49.470Z,17.10
2022-08-22T18:30:33.615Z,17.10
2022-08-22T18:33:27.207Z,17.10
2022-08-22T18:36:11.375Z,17.10
2022-08-22T18:38:44.565Z,17.10
2022-08-22T18:41:20.521Z,17.10
2022-08-22T18:43:50.957Z,17.20
2022-08-22T18:46:33.234Z,17.20
2022-08-22T18:49:17.793Z,17.10
2022-08-22T18:51:44.839Z,17.20
2022-08-22T18:54:11.893Z,17.10
2022-08-22T18:56:58.829Z,17.10
2022-08-22T18:59:29.230Z,16.40
2022-08-22T19:02:22.886Z,17.20
2022-08-22T19:05:05.767Z,17.10
2022-08-22T19:08:00.342Z,17.10
2022-08-22T19:10:34.440Z,17.20
2022-08-22T19:13:25.571Z,17.20
2022-08-22T19:16:16.411Z,17.00
2022-08-22T19:18:58.058Z,17.00
2022-08-22T19:21:51.227Z,17.40
2022-08-22T19:24:27.107Z,17.00
2022-08-22T19:27:16.443Z,17.20
2022-08-22T19:29:43.647Z,17.10
2022-08-22T19:32:44.906Z,17.10
2022-08-22T19:35:23.799Z,17.50
2022-08-22T19:38:02.987Z,17.20
2022-08-22T19:40:45.375Z,17.20
2022-08-22T19:43:35.189Z,17.20
2022-08-22T19:46:04.967Z,17.10
2022-08-22T19:48:44.886Z,17.00
2022-08-22T19:51:15.255Z,17.00
2022-08-22T19:54:01.631Z,17.20
2022-08-22T19:56:56.395Z,17.10
2022-08-22T19:59:37.002Z,17.20
2022-08-22T20:02:27.461Z,17.20
2022-08-22T20:05:06.157Z,17.20
2022-08-22T20:07:59.149Z,17.20
2022-08-22T20:10:53.662Z,17.20
2022-08-22T20:13:25.740Z,17.20
2022-08-22T20:16:20.034Z,17.30
2022-08-22T20:19:15.822Z,17.30
2022-08-22T20:21:44.440Z,17.30
2022-08-22T20:24:24.452Z,17.20
2022-08-22T20:27:12.731Z,17.60
2022-08-22T20:29:43.903Z,17.20
2022-08-22T20:32:10.890Z,17.20
2022-08-22T20:34:39.634Z,17.20
2022-08-22T20:37:29.643Z,17.20
2022-08-22T20:40:00.574Z,17.20
2022-08-22T20:42:29.943Z,17.20
2022-08-22T20:44:57.096Z,17.20
2022-08-22T20:47:26.164Z,17.30
2022-08-22T20:50:03.920Z,17.30
2022-08-22T20:52:33.840Z,17.40
2022-08-22T20:55:04.111Z,17.30
2022-08-22T20:57:31.259Z,17.40
2022-08-22T21:00:07.007Z,17.40
2022-08-22T21:02:49.031Z,17.30
2022-08-22T21:05:17.224Z,17.40
2022-08-22T21:07:49.202Z,17.40
2022-08-22T21:10:34.663Z,17.50
2022-08-22T21:13:10.776Z,17.50
2022-08-22T21:15:45.315Z,17.60
2022-08-22T21:18:14.295Z,17.60
2022-08-22T21:20:41.424Z,19.40
2022-08-22T21:23:12.586Z,17.50
2022-08-22T21:26:02.029Z,17.60
2022-08-22T21:28:38.302Z,17.50
2022-08-22T21:31:11.414Z,17.50
2022-08-22T21:33:43.110Z,17.70
2022-08-22T21:36:11.084Z,17.70
2022-08-22T21:38:38.370Z,17.60
2022-08-22T21:41:06.280Z,17.50
2022-08-22T21:43:37.074Z,17.60
2022-08-22T21:46:05.373Z,17.70
2022-08-22T21:48:33.381Z,17.50
2022-08-22T21:51:22.969Z,17.60
2022-08-22T21:53:56.029Z,17.50
2022-08-22T21:56:37.352Z,17.50
2022-08-22T21:59:51.669Z,17.60
2022-08-22T22:02:36.433Z,17.50
2022-08-22T22:05:11.899Z,17.60
2022-08-22T22:07:43.682Z,17.70
2022-08-22T22:10:12.078Z,17.60
2022-08-22T22:12:41.018Z,17.60
2022-08-22T22:15:08.733Z,17.60
2022-08-22T22:17:35.748Z,17.70
2022-08-22T22:20:03.284Z,17.70
2022-08-22T22:22:30.268Z,17.60
2022-08-22T22:24:57.439Z,17.80
2022-08-22T22:27:24.604Z,17.80
2022-08-22T22:29:51.548Z,17.60
2022-08-22T22:32:18.649Z,17.60
2022-08-22T22:34:45.966Z,17.70
2022-08-22T22:37:14.797Z,17.70
2022-08-22T22:39:42.235Z,17.60
2022-08-22T22:42:09.600Z,17.60
2022-08-22T22:44:36.682Z,17.70
2022-08-22T22:47:04.009Z,17.60
2022-08-22T22:49:31.826Z,17.60
2022-08-22T22:51:59.880Z,17.60
2022-08-22T22:54:27.020Z,17.60
2022-08-22T22:56:54.460Z,17.70
2022-08-22T22:59:24.608Z,17.60
2022-08-22T23:02:05.589Z,17.90
2022-08-22T23:04:33.307Z,17.80
2022-08-22T23:07:00.454Z,17.60
2022-08-22T23:09:38.602Z,17.70
2022-08-22T23:12:12.267Z,17.70
2022-08-22T23:14:39.237Z,17.60
2022-08-22T23:17:06.521Z,17.60
2022-08-22T23:19:34.063Z,17.70
2022-08-22T23:22:01.408Z,17.70
2022-08-22T23:24:31.190Z,17.70
2022-08-22T23:26:58.330Z,16.60
2022-08-22T23:29:25.656Z,17.60
2022-08-22T23:31:57.155Z,17.70
2022-08-22T23:34:28.445Z,17.50
2022-08-22T23:36:57.810Z,17.60
2022-08-22T23:39:26.118Z,17.50
2022-08-22T23:41:53.614Z,17.80
2022-08-22T23:44:22.156Z,17.90
2022-08-22T23:46:52.191Z,17.70
2022-08-22T23:49:19.361Z,17.30
2022-08-22T23:51:46.570Z,17.20
2022-08-22T23:54:13.769Z,17.20
2022-08-22T23:56:45.918Z,17.50
2022-08-22T23:59:15.173Z,17.10
